sensor_id;sensor_type;location;lat;lon;timestamp;P1;durP1;ratioP1;P2;durP2;ratioP2
22388;SDS011;11362;48.102;11.620;2023-05-10T00:00:37;2.77;;;1.83;;
22388;SDS011;11362;48.102;11.620;2023-05-10T00:03:03;4.10;;;1.70;;
22388;SDS011;11362;48.102;11.620;2023-05-10T00:05:28;2.40;;;2.20;;
22388;SDS011;11362;48.102;11.620;2023-05-10T00:07:53;2.50;;;1.87;;
22388;SDS011;11362;48.102;11.620;2023-05-10T00:10:18;2.07;;;1.90;;
22388;SDS011;11362;48.102;11.620;2023-05-10T00:12:44;2.53;;;2.30;;
22388;SDS011;11362;48.102;11.620;2023-05-10T00:15:09;2.60;;;2.07;;
22388;SDS011;11362;48.102;11.620;2023-05-10T00:17:35;1.63;;;1.40;;
22388;SDS011;11362;48.102;11.620;2023-05-10T00:20:00;4.47;;;2.10;;
22388;SDS011;11362;48.102;11.620;2023-05-10T00:22:26;2.10;;;1.83;;
22388;SDS011;11362;48.102;11.620;2023-05-10T00:24:51;2.27;;;1.87;;
22388;SDS011;11362;48.102;11.620;2023-05-10T00:27:16;5.37;;;2.00;;
22388;SDS011;11362;48.102;11.620;2023-05-10T00:29:41;1.90;;;1.80;;
22388;SDS011;11362;48.102;11.620;2023-05-10T00:32:07;1.70;;;1.60;;
22388;SDS011;11362;48.102;11.620;2023-05-10T00:34:32;1.70;;;1.60;;
22388;SDS011;11362;48.102;11.620;2023-05-10T00:36:58;1.67;;;1.40;;
22388;SDS011;11362;48.102;11.620;2023-05-10T00:39:23;2.17;;;1.50;;
22388;SDS011;11362;48.102;11.620;2023-05-10T00:41:48;4.97;;;1.80;;
22388;SDS011;11362;48.102;11.620;2023-05-10T00:44:14;1.63;;;1.53;;
22388;SDS011;11362;48.102;11.620;2023-05-10T00:46:39;1.60;;;1.50;;
22388;SDS011;11362;48.102;11.620;2023-05-10T00:49:05;2.40;;;1.73;;
22388;SDS011;11362;48.102;11.620;2023-05-10T00:51:31;1.97;;;1.87;;
22388;SDS011;11362;48.102;11.620;2023-05-10T00:53:56;2.77;;;1.50;;
22388;SDS011;11362;48.102;11.620;2023-05-10T00:56:22;1.50;;;1.40;;
22388;SDS011;11362;48.102;11.620;2023-05-10T00:58:47;1.93;;;1.37;;
22388;SDS011;11362;48.102;11.620;2023-05-10T01:01:12;2.07;;;1.40;;
22388;SDS011;11362;48.102;11.620;2023-05-10T01:03:38;1.90;;;1.80;;
22388;SDS011;11362;48.102;11.620;2023-05-10T01:06:04;1.53;;;1.43;;
22388;SDS011;11362;48.102;11.620;2023-05-10T01:08:30;3.00;;;1.77;;
22388;SDS011;11362;48.102;11.620;2023-05-10T01:10:56;2.43;;;1.50;;
22388;SDS011;11362;48.102;11.620;2023-05-10T01:13:32;1.70;;;1.60;;
22388;SDS011;11362;48.102;11.620;2023-05-10T01:16:00;2.13;;;1.70;;
22388;SDS011;11362;48.102;11.620;2023-05-10T01:18:25;2.03;;;1.27;;
22388;SDS011;11362;48.102;11.620;2023-05-10T01:20:56;1.27;;;1.23;;
22388;SDS011;11362;48.102;11.620;2023-05-10T01:26:39;1.37;;;1.23;;
22388;SDS011;11362;48.102;11.620;2023-05-10T01:32:15;1.73;;;1.50;;
22388;SDS011;11362;48.102;11.620;2023-05-10T01:34:52;1.17;;;1.17;;
22388;SDS011;11362;48.102;11.620;2023-05-10T01:37:26;1.97;;;1.33;;
22388;SDS011;11362;48.102;11.620;2023-05-10T01:40:00;1.13;;;1.10;;
22388;SDS011;11362;48.102;11.620;2023-05-10T01:42:40;1.50;;;1.40;;
22388;SDS011;11362;48.102;11.620;2023-05-10T01:45:20;1.40;;;1.30;;
22388;SDS011;11362;48.102;11.620;2023-05-10T01:48:09;1.70;;;1.40;;
22388;SDS011;11362;48.102;11.620;2023-05-10T01:50:36;1.50;;;1.40;;
22388;SDS011;11362;48.102;11.620;2023-05-10T01:53:05;1.40;;;1.30;;
22388;SDS011;11362;48.102;11.620;2023-05-10T01:55:32;1.90;;;1.27;;
22388;SDS011;11362;48.102;11.620;2023-05-10T01:58:05;2.27;;;1.30;;
22388;SDS011;11362;48.102;11.620;2023-05-10T02:00:32;2.43;;;1.13;;
22388;SDS011;11362;48.102;11.620;2023-05-10T02:02:59;1.40;;;1.30;;
22388;SDS011;11362;48.102;11.620;2023-05-10T02:05:26;2.70;;;1.47;;
22388;SDS011;11362;48.102;11.620;2023-05-10T02:07:55;2.17;;;1.43;;
22388;SDS011;11362;48.102;11.620;2023-05-10T02:10:23;1.13;;;1.13;;
22388;SDS011;11362;48.102;11.620;2023-05-10T02:12:48;2.17;;;1.17;;
22388;SDS011;11362;48.102;11.620;2023-05-10T02:15:17;1.40;;;1.30;;
22388;SDS011;11362;48.102;11.620;2023-05-10T02:17:45;1.20;;;1.20;;
22388;SDS011;11362;48.102;11.620;2023-05-10T02:20:12;2.10;;;0.93;;
22388;SDS011;11362;48.102;11.620;2023-05-10T02:22:38;1.47;;;1.37;;
22388;SDS011;11362;48.102;11.620;2023-05-10T02:25:05;1.37;;;1.27;;
22388;SDS011;11362;48.102;11.620;2023-05-10T02:27:32;1.10;;;1.10;;
22388;SDS011;11362;48.102;11.620;2023-05-10T02:29:58;1.90;;;1.40;;
22388;SDS011;11362;48.102;11.620;2023-05-10T02:32:24;1.40;;;1.20;;
22388;SDS011;11362;48.102;11.620;2023-05-10T02:34:51;1.80;;;1.37;;
22388;SDS011;11362;48.102;11.620;2023-05-10T02:37:18;1.20;;;1.10;;
22388;SDS011;11362;48.102;11.620;2023-05-10T02:39:48;1.30;;;1.20;;
22388;SDS011;11362;48.102;11.620;2023-05-10T02:42:18;1.13;;;1.03;;
22388;SDS011;11362;48.102;11.620;2023-05-10T02:44:48;1.23;;;1.13;;
22388;SDS011;11362;48.102;11.620;2023-05-10T02:47:15;0.93;;;0.90;;
22388;SDS011;11362;48.102;11.620;2023-05-10T02:49:41;1.03;;;0.97;;
22388;SDS011;11362;48.102;11.620;2023-05-10T02:52:07;1.43;;;1.20;;
22388;SDS011;11362;48.102;11.620;2023-05-10T02:54:33;2.17;;;1.30;;
22388;SDS011;11362;48.102;11.620;2023-05-10T02:57:11;0.70;;;0.70;;
22388;SDS011;11362;48.102;11.620;2023-05-10T02:59:40;1.80;;;1.00;;
22388;SDS011;11362;48.102;11.620;2023-05-10T03:02:05;1.17;;;1.07;;
22388;SDS011;11362;48.102;11.620;2023-05-10T03:04:31;1.73;;;0.97;;
22388;SDS011;11362;48.102;11.620;2023-05-10T03:06:56;0.80;;;0.80;;
22388;SDS011;11362;48.102;11.620;2023-05-10T03:09:22;1.07;;;0.97;;
22388;SDS011;11362;48.102;11.620;2023-05-10T03:12:00;0.80;;;0.80;;
22388;SDS011;11362;48.102;11.620;2023-05-10T03:14:49;0.87;;;0.87;;
22388;SDS011;11362;48.102;11.620;2023-05-10T03:17:23;0.87;;;0.83;;
22388;SDS011;11362;48.102;11.620;2023-05-10T03:19:55;2.10;;;1.00;;
22388;SDS011;11362;48.102;11.620;2023-05-10T03:22:26;1.10;;;1.00;;
22388;SDS011;11362;48.102;11.620;2023-05-10T03:24:57;0.90;;;0.90;;
22388;SDS011;11362;48.102;11.620;2023-05-10T03:27:26;0.90;;;0.83;;
22388;SDS011;11362;48.102;11.620;2023-05-10T03:29:53;1.17;;;0.93;;
22388;SDS011;11362;48.102;11.620;2023-05-10T03:32:19;1.40;;;1.30;;
22388;SDS011;11362;48.102;11.620;2023-05-10T03:34:45;2.27;;;1.00;;
22388;SDS011;11362;48.102;11.620;2023-05-10T03:37:10;2.57;;;1.00;;
22388;SDS011;11362;48.102;11.620;2023-05-10T03:39:35;0.80;;;0.70;;
22388;SDS011;11362;48.102;11.620;2023-05-10T03:42:01;1.27;;;1.10;;
22388;SDS011;11362;48.102;11.620;2023-05-10T03:44:26;0.83;;;0.83;;
22388;SDS011;11362;48.102;11.620;2023-05-10T03:46:51;0.90;;;0.90;;
22388;SDS011;11362;48.102;11.620;2023-05-10T03:49:17;0.90;;;0.90;;
22388;SDS011;11362;48.102;11.620;2023-05-10T03:51:42;0.80;;;0.80;;
22388;SDS011;11362;48.102;11.620;2023-05-10T03:54:07;0.90;;;0.90;;
22388;SDS011;11362;48.102;11.620;2023-05-10T03:56:32;1.43;;;0.90;;
22388;SDS011;11362;48.102;11.620;2023-05-10T03:58:58;0.80;;;0.80;;
22388;SDS011;11362;48.102;11.620;2023-05-10T04:01:23;0.73;;;0.73;;
22388;SDS011;11362;48.102;11.620;2023-05-10T04:03:48;0.70;;;0.70;;
22388;SDS011;11362;48.102;11.620;2023-05-10T04:06:14;0.90;;;0.90;;
22388;SDS011;11362;48.102;11.620;2023-05-10T04:08:39;0.87;;;0.87;;
22388;SDS011;11362;48.102;11.620;2023-05-10T04:11:05;1.07;;;0.93;;
22388;SDS011;11362;48.102;11.620;2023-05-10T04:13:31;0.70;;;0.70;;
22388;SDS011;11362;48.102;11.620;2023-05-10T04:15:56;0.83;;;0.83;;
22388;SDS011;11362;48.102;11.620;2023-05-10T04:18:21;0.80;;;0.70;;
22388;SDS011;11362;48.102;11.620;2023-05-10T04:20:47;0.80;;;0.80;;
22388;SDS011;11362;48.102;11.620;2023-05-10T04:23:12;0.80;;;0.80;;
22388;SDS011;11362;48.102;11.620;2023-05-10T04:25:37;0.57;;;0.57;;
22388;SDS011;11362;48.102;11.620;2023-05-10T04:28:02;0.80;;;0.80;;
22388;SDS011;11362;48.102;11.620;2023-05-10T04:30:28;0.90;;;0.90;;
22388;SDS011;11362;48.102;11.620;2023-05-10T04:32:53;0.90;;;0.90;;
22388;SDS011;11362;48.102;11.620;2023-05-10T04:35:18;0.97;;;0.70;;
22388;SDS011;11362;48.102;11.620;2023-05-10T04:37:44;0.70;;;0.70;;
22388;SDS011;11362;48.102;11.620;2023-05-10T04:40:09;1.53;;;0.90;;
22388;SDS011;11362;48.102;11.620;2023-05-10T04:42:35;0.93;;;0.80;;
22388;SDS011;11362;48.102;11.620;2023-05-10T04:45:00;0.80;;;0.80;;
22388;SDS011;11362;48.102;11.620;2023-05-10T04:47:25;1.03;;;0.80;;
22388;SDS011;11362;48.102;11.620;2023-05-10T04:49:50;0.70;;;0.70;;
22388;SDS011;11362;48.102;11.620;2023-05-10T04:52:16;1.33;;;1.03;;
22388;SDS011;11362;48.102;11.620;2023-05-10T04:54:41;0.60;;;0.60;;
22388;SDS011;11362;48.102;11.620;2023-05-10T04:57:06;0.97;;;0.97;;
22388;SDS011;11362;48.102;11.620;2023-05-10T04:59:31;0.77;;;0.77;;
22388;SDS011;11362;48.102;11.620;2023-05-10T05:01:57;0.70;;;0.70;;
22388;SDS011;11362;48.102;11.620;2023-05-10T05:04:22;1.33;;;0.83;;
22388;SDS011;11362;48.102;11.620;2023-05-10T05:06:47;1.10;;;0.70;;
22388;SDS011;11362;48.102;11.620;2023-05-10T05:09:12;4.70;;;1.20;;
22388;SDS011;11362;48.102;11.620;2023-05-10T05:11:38;2.17;;;0.93;;
22388;SDS011;11362;48.102;11.620;2023-05-10T05:14:03;4.07;;;1.00;;
22388;SDS011;11362;48.102;11.620;2023-05-10T05:16:30;7.07;;;1.60;;
22388;SDS011;11362;48.102;11.620;2023-05-10T05:18:55;9.00;;;1.70;;
22388;SDS011;11362;48.102;11.620;2023-05-10T05:21:21;6.83;;;1.33;;
22388;SDS011;11362;48.102;11.620;2023-05-10T05:23:46;4.23;;;1.37;;
22388;SDS011;11362;48.102;11.620;2023-05-10T05:26:11;11.37;;;2.03;;
22388;SDS011;11362;48.102;11.620;2023-05-10T05:28:37;8.80;;;1.63;;
22388;SDS011;11362;48.102;11.620;2023-05-10T05:31:03;4.93;;;2.03;;
22388;SDS011;11362;48.102;11.620;2023-05-10T05:33:29;15.90;;;1.90;;
22388;SDS011;11362;48.102;11.620;2023-05-10T05:35:54;11.37;;;2.57;;
22388;SDS011;11362;48.102;11.620;2023-05-10T05:38:19;9.17;;;1.83;;
22388;SDS011;11362;48.102;11.620;2023-05-10T05:40:45;7.33;;;1.87;;
22388;SDS011;11362;48.102;11.620;2023-05-10T05:43:10;14.30;;;2.30;;
22388;SDS011;11362;48.102;11.620;2023-05-10T05:45:35;6.73;;;1.90;;
22388;SDS011;11362;48.102;11.620;2023-05-10T05:48:00;11.30;;;2.40;;
22388;SDS011;11362;48.102;11.620;2023-05-10T05:50:26;7.77;;;1.97;;
22388;SDS011;11362;48.102;11.620;2023-05-10T05:52:51;7.87;;;2.10;;
22388;SDS011;11362;48.102;11.620;2023-05-10T05:55:16;10.87;;;1.80;;
22388;SDS011;11362;48.102;11.620;2023-05-10T05:57:42;15.13;;;2.57;;
22388;SDS011;11362;48.102;11.620;2023-05-10T06:00:07;12.50;;;1.77;;
22388;SDS011;11362;48.102;11.620;2023-05-10T06:02:33;8.13;;;1.77;;
22388;SDS011;11362;48.102;11.620;2023-05-10T06:04:58;8.03;;;2.17;;
22388;SDS011;11362;48.102;11.620;2023-05-10T06:07:23;11.87;;;2.63;;
22388;SDS011;11362;48.102;11.620;2023-05-10T06:09:48;8.90;;;2.27;;
22388;SDS011;11362;48.102;11.620;2023-05-10T06:12:14;6.60;;;1.50;;
22388;SDS011;11362;48.102;11.620;2023-05-10T06:14:39;8.70;;;1.50;;
22388;SDS011;11362;48.102;11.620;2023-05-10T06:17:04;9.43;;;1.50;;
22388;SDS011;11362;48.102;11.620;2023-05-10T06:19:30;9.60;;;1.70;;
22388;SDS011;11362;48.102;11.620;2023-05-10T06:21:55;6.80;;;2.20;;
22388;SDS011;11362;48.102;11.620;2023-05-10T06:24:20;8.70;;;1.70;;
22388;SDS011;11362;48.102;11.620;2023-05-10T06:26:45;6.07;;;1.33;;
22388;SDS011;11362;48.102;11.620;2023-05-10T06:29:11;9.13;;;2.40;;
22388;SDS011;11362;48.102;11.620;2023-05-10T06:31:37;6.33;;;1.63;;
22388;SDS011;11362;48.102;11.620;2023-05-10T06:34:02;7.27;;;1.60;;
22388;SDS011;11362;48.102;11.620;2023-05-10T06:36:27;3.83;;;1.50;;
22388;SDS011;11362;48.102;11.620;2023-05-10T06:38:52;11.67;;;2.00;;
22388;SDS011;11362;48.102;11.620;2023-05-10T06:41:18;20.30;;;3.97;;
22388;SDS011;11362;48.102;11.620;2023-05-10T06:43:43;9.17;;;1.67;;
22388;SDS011;11362;48.102;11.620;2023-05-10T06:46:08;2.37;;;1.07;;
22388;SDS011;11362;48.102;11.620;2023-05-10T06:48:34;6.90;;;1.73;;
22388;SDS011;11362;48.102;11.620;2023-05-10T06:50:59;7.33;;;1.60;;
22388;SDS011;11362;48.102;11.620;2023-05-10T06:53:24;6.03;;;1.47;;
22388;SDS011;11362;48.102;11.620;2023-05-10T06:55:50;5.17;;;1.17;;
22388;SDS011;11362;48.102;11.620;2023-05-10T06:58:15;3.83;;;1.43;;
22388;SDS011;11362;48.102;11.620;2023-05-10T07:00:40;4.87;;;1.37;;
22388;SDS011;11362;48.102;11.620;2023-05-10T07:03:06;5.20;;;1.13;;
22388;SDS011;11362;48.102;11.620;2023-05-10T07:05:31;3.23;;;1.00;;
22388;SDS011;11362;48.102;11.620;2023-05-10T07:07:56;11.07;;;1.30;;
22388;SDS011;11362;48.102;11.620;2023-05-10T07:10:21;8.40;;;1.30;;
22388;SDS011;11362;48.102;11.620;2023-05-10T07:12:47;5.30;;;1.57;;
22388;SDS011;11362;48.102;11.620;2023-05-10T07:15:12;5.00;;;1.40;;
22388;SDS011;11362;48.102;11.620;2023-05-10T07:17:38;8.23;;;1.60;;
22388;SDS011;11362;48.102;11.620;2023-05-10T07:20:03;2.80;;;0.87;;
22388;SDS011;11362;48.102;11.620;2023-05-10T07:22:29;5.90;;;0.93;;
22388;SDS011;11362;48.102;11.620;2023-05-10T07:24:54;3.93;;;0.97;;
22388;SDS011;11362;48.102;11.620;2023-05-10T07:27:19;5.20;;;0.97;;
22388;SDS011;11362;48.102;11.620;2023-05-10T07:29:45;3.03;;;1.00;;
22388;SDS011;11362;48.102;11.620;2023-05-10T07:32:10;3.27;;;1.10;;
22388;SDS011;11362;48.102;11.620;2023-05-10T07:34:35;1.97;;;0.93;;
22388;SDS011;11362;48.102;11.620;2023-05-10T07:37:00;5.57;;;1.10;;
22388;SDS011;11362;48.102;11.620;2023-05-10T07:39:26;4.97;;;1.20;;
22388;SDS011;11362;48.102;11.620;2023-05-10T07:41:52;6.37;;;1.70;;
22388;SDS011;11362;48.102;11.620;2023-05-10T07:44:17;4.07;;;1.13;;
22388;SDS011;11362;48.102;11.620;2023-05-10T07:46:43;5.77;;;1.30;;
22388;SDS011;11362;48.102;11.620;2023-05-10T07:49:08;3.10;;;1.20;;
22388;SDS011;11362;48.102;11.620;2023-05-10T07:51:33;7.47;;;1.07;;
22388;SDS011;11362;48.102;11.620;2023-05-10T07:53:59;3.37;;;1.17;;
22388;SDS011;11362;48.102;11.620;2023-05-10T07:56:25;3.13;;;0.93;;
22388;SDS011;11362;48.102;11.620;2023-05-10T07:59:00;4.03;;;1.20;;
22388;SDS011;11362;48.102;11.620;2023-05-10T08:01:29;5.50;;;1.20;;
22388;SDS011;11362;48.102;11.620;2023-05-10T08:03:55;6.87;;;1.20;;
22388;SDS011;11362;48.102;11.620;2023-05-10T08:06:21;1.90;;;0.90;;
22388;SDS011;11362;48.102;11.620;2023-05-10T08:08:46;4.03;;;1.17;;
22388;SDS011;11362;48.102;11.620;2023-05-10T08:11:12;4.57;;;1.60;;
22388;SDS011;11362;48.102;11.620;2023-05-10T08:13:37;3.93;;;1.00;;
22388;SDS011;11362;48.102;11.620;2023-05-10T08:16:03;4.13;;;1.20;;
22388;SDS011;11362;48.102;11.620;2023-05-10T08:18:28;5.40;;;1.40;;
22388;SDS011;11362;48.102;11.620;2023-05-10T08:20:53;7.50;;;1.00;;
22388;SDS011;11362;48.102;11.620;2023-05-10T08:23:19;4.10;;;1.17;;
22388;SDS011;11362;48.102;11.620;2023-05-10T08:25:44;5.20;;;1.00;;
22388;SDS011;11362;48.102;11.620;2023-05-10T08:28:09;4.60;;;1.33;;
22388;SDS011;11362;48.102;11.620;2023-05-10T08:30:35;2.27;;;0.97;;
22388;SDS011;11362;48.102;11.620;2023-05-10T08:33:00;3.70;;;1.00;;
22388;SDS011;11362;48.102;11.620;2023-05-10T08:35:25;4.37;;;1.00;;
22388;SDS011;11362;48.102;11.620;2023-05-10T08:37:51;2.90;;;0.90;;
22388;SDS011;11362;48.102;11.620;2023-05-10T08:40:16;6.93;;;1.20;;
22388;SDS011;11362;48.102;11.620;2023-05-10T08:42:45;7.30;;;1.17;;
22388;SDS011;11362;48.102;11.620;2023-05-10T08:45:20;4.80;;;1.00;;
22388;SDS011;11362;48.102;11.620;2023-05-10T08:47:49;2.60;;;1.00;;
22388;SDS011;11362;48.102;11.620;2023-05-10T08:50:17;5.90;;;1.30;;
22388;SDS011;11362;48.102;11.620;2023-05-10T08:52:45;2.93;;;1.10;;
22388;SDS011;11362;48.102;11.620;2023-05-10T08:55:13;1.17;;;0.70;;
22388;SDS011;11362;48.102;11.620;2023-05-10T08:57:40;2.93;;;0.80;;
22388;SDS011;11362;48.102;11.620;2023-05-10T09:00:05;5.80;;;1.27;;
22388;SDS011;11362;48.102;11.620;2023-05-10T09:02:31;3.53;;;0.90;;
22388;SDS011;11362;48.102;11.620;2023-05-10T09:04:57;4.87;;;0.93;;
22388;SDS011;11362;48.102;11.620;2023-05-10T09:07:22;3.23;;;1.03;;
22388;SDS011;11362;48.102;11.620;2023-05-10T09:09:48;3.43;;;1.47;;
22388;SDS011;11362;48.102;11.620;2023-05-10T09:12:13;7.90;;;1.60;;
22388;SDS011;11362;48.102;11.620;2023-05-10T09:14:39;8.17;;;0.90;;
22388;SDS011;11362;48.102;11.620;2023-05-10T09:17:04;5.73;;;1.10;;
22388;SDS011;11362;48.102;11.620;2023-05-10T09:19:30;5.50;;;1.13;;
22388;SDS011;11362;48.102;11.620;2023-05-10T09:21:56;3.00;;;1.00;;
22388;SDS011;11362;48.102;11.620;2023-05-10T09:24:24;6.60;;;0.97;;
22388;SDS011;11362;48.102;11.620;2023-05-10T09:26:50;3.00;;;1.27;;
22388;SDS011;11362;48.102;11.620;2023-05-10T09:29:16;2.23;;;0.70;;
22388;SDS011;11362;48.102;11.620;2023-05-10T09:31:48;3.33;;;1.00;;
22388;SDS011;11362;48.102;11.620;2023-05-10T09:34:22;4.40;;;1.20;;
22388;SDS011;11362;48.102;11.620;2023-05-10T09:36:54;1.27;;;0.93;;
22388;SDS011;11362;48.102;11.620;2023-05-10T09:39:31;9.47;;;1.73;;
22388;SDS011;11362;48.102;11.620;2023-05-10T09:41:58;6.87;;;1.20;;
22388;SDS011;11362;48.102;11.620;2023-05-10T09:44:25;10.13;;;1.23;;
22388;SDS011;11362;48.102;11.620;2023-05-10T09:46:51;3.63;;;1.13;;
22388;SDS011;11362;48.102;11.620;2023-05-10T09:49:16;3.17;;;1.00;;
22388;SDS011;11362;48.102;11.620;2023-05-10T09:51:42;10.40;;;1.77;;
22388;SDS011;11362;48.102;11.620;2023-05-10T09:54:14;7.70;;;1.53;;
22388;SDS011;11362;48.102;11.620;2023-05-10T09:56:41;6.03;;;0.93;;
22388;SDS011;11362;48.102;11.620;2023-05-10T09:59:09;6.83;;;1.20;;
22388;SDS011;11362;48.102;11.620;2023-05-10T10:01:36;1.53;;;1.10;;
22388;SDS011;11362;48.102;11.620;2023-05-10T10:04:03;4.13;;;1.23;;
22388;SDS011;11362;48.102;11.620;2023-05-10T10:06:34;5.10;;;1.00;;
22388;SDS011;11362;48.102;11.620;2023-05-10T10:09:00;4.27;;;1.20;;
22388;SDS011;11362;48.102;11.620;2023-05-10T10:11:26;5.00;;;1.10;;
22388;SDS011;11362;48.102;11.620;2023-05-10T10:13:51;4.87;;;1.07;;
22388;SDS011;11362;48.102;11.620;2023-05-10T10:16:17;4.90;;;1.10;;
22388;SDS011;11362;48.102;11.620;2023-05-10T10:18:42;4.93;;;1.53;;
22388;SDS011;11362;48.102;11.620;2023-05-10T10:21:08;8.23;;;1.60;;
22388;SDS011;11362;48.102;11.620;2023-05-10T10:23:36;5.43;;;1.50;;
22388;SDS011;11362;48.102;11.620;2023-05-10T10:26:02;6.33;;;1.87;;
22388;SDS011;11362;48.102;11.620;2023-05-10T10:31:27;9.80;;;1.60;;
22388;SDS011;11362;48.102;11.620;2023-05-10T10:34:10;6.57;;;2.07;;
22388;SDS011;11362;48.102;11.620;2023-05-10T10:36:44;6.20;;;1.83;;
22388;SDS011;11362;48.102;11.620;2023-05-10T10:39:11;6.03;;;1.50;;
22388;SDS011;11362;48.102;11.620;2023-05-10T10:41:39;9.67;;;1.77;;
22388;SDS011;11362;48.102;11.620;2023-05-10T10:49:43;9.50;;;1.87;;
22388;SDS011;11362;48.102;11.620;2023-05-10T10:55:01;3.97;;;1.30;;
22388;SDS011;11362;48.102;11.620;2023-05-10T10:57:32;5.20;;;1.60;;
22388;SDS011;11362;48.102;11.620;2023-05-10T11:03:04;9.20;;;1.13;;
22388;SDS011;11362;48.102;11.620;2023-05-10T11:07:59;7.83;;;2.20;;
22388;SDS011;11362;48.102;11.620;2023-05-10T11:10:26;5.53;;;1.70;;
22388;SDS011;11362;48.102;11.620;2023-05-10T11:13:05;6.07;;;1.57;;
22388;SDS011;11362;48.102;11.620;2023-05-10T11:15:31;6.13;;;1.80;;
22388;SDS011;11362;48.102;11.620;2023-05-10T11:17:58;2.97;;;2.00;;
22388;SDS011;11362;48.102;11.620;2023-05-10T11:20:23;8.07;;;1.50;;
22388;SDS011;11362;48.102;11.620;2023-05-10T11:22:53;5.93;;;1.60;;
22388;SDS011;11362;48.102;11.620;2023-05-10T11:25:19;8.87;;;1.80;;
22388;SDS011;11362;48.102;11.620;2023-05-10T11:27:44;9.50;;;1.40;;
22388;SDS011;11362;48.102;11.620;2023-05-10T11:30:12;9.43;;;1.30;;
22388;SDS011;11362;48.102;11.620;2023-05-10T11:32:38;8.97;;;1.53;;
22388;SDS011;11362;48.102;11.620;2023-05-10T11:35:06;3.03;;;1.37;;
22388;SDS011;11362;48.102;11.620;2023-05-10T11:37:35;5.37;;;1.47;;
22388;SDS011;11362;48.102;11.620;2023-05-10T11:40:01;3.63;;;1.40;;
22388;SDS011;11362;48.102;11.620;2023-05-10T11:42:29;3.10;;;1.57;;
22388;SDS011;11362;48.102;11.620;2023-05-10T11:44:55;7.60;;;1.50;;
22388;SDS011;11362;48.102;11.620;2023-05-10T11:47:20;3.63;;;1.67;;
22388;SDS011;11362;48.102;11.620;2023-05-10T11:49:47;5.37;;;1.13;;
22388;SDS011;11362;48.102;11.620;2023-05-10T11:52:13;7.47;;;1.83;;
22388;SDS011;11362;48.102;11.620;2023-05-10T11:54:44;4.23;;;1.30;;
22388;SDS011;11362;48.102;11.620;2023-05-10T11:57:10;3.60;;;1.40;;
22388;SDS011;11362;48.102;11.620;2023-05-10T11:59:36;2.83;;;1.00;;
22388;SDS011;11362;48.102;11.620;2023-05-10T12:02:01;6.33;;;1.70;;
22388;SDS011;11362;48.102;11.620;2023-05-10T12:04:27;4.43;;;1.30;;
22388;SDS011;11362;48.102;11.620;2023-05-10T12:06:52;4.80;;;2.00;;
22388;SDS011;11362;48.102;11.620;2023-05-10T12:09:18;3.80;;;1.40;;
22388;SDS011;11362;48.102;11.620;2023-05-10T12:11:43;3.27;;;1.00;;
22388;SDS011;11362;48.102;11.620;2023-05-10T12:14:08;5.03;;;1.37;;
22388;SDS011;11362;48.102;11.620;2023-05-10T12:16:34;8.73;;;1.50;;
22388;SDS011;11362;48.102;11.620;2023-05-10T12:19:00;7.10;;;2.17;;
22388;SDS011;11362;48.102;11.620;2023-05-10T12:21:26;4.53;;;1.60;;
22388;SDS011;11362;48.102;11.620;2023-05-10T12:23:53;6.33;;;1.17;;
22388;SDS011;11362;48.102;11.620;2023-05-10T12:26:23;6.60;;;1.40;;
22388;SDS011;11362;48.102;11.620;2023-05-10T12:28:49;2.30;;;1.20;;
22388;SDS011;11362;48.102;11.620;2023-05-10T12:31:15;7.63;;;1.87;;
22388;SDS011;11362;48.102;11.620;2023-05-10T12:33:43;6.50;;;1.70;;
22388;SDS011;11362;48.102;11.620;2023-05-10T12:36:09;5.43;;;1.73;;
22388;SDS011;11362;48.102;11.620;2023-05-10T12:38:36;4.87;;;1.30;;
22388;SDS011;11362;48.102;11.620;2023-05-10T12:41:03;3.57;;;1.23;;
22388;SDS011;11362;48.102;11.620;2023-05-10T12:43:32;4.70;;;1.70;;
22388;SDS011;11362;48.102;11.620;2023-05-10T12:45:58;11.20;;;1.80;;
22388;SDS011;11362;48.102;11.620;2023-05-10T12:48:29;8.63;;;1.50;;
22388;SDS011;11362;48.102;11.620;2023-05-10T12:50:54;5.23;;;1.93;;
22388;SDS011;11362;48.102;11.620;2023-05-10T12:53:20;11.37;;;2.00;;
22388;SDS011;11362;48.102;11.620;2023-05-10T12:55:45;9.23;;;1.97;;
22388;SDS011;11362;48.102;11.620;2023-05-10T12:58:10;4.67;;;1.77;;
22388;SDS011;11362;48.102;11.620;2023-05-10T13:00:36;6.60;;;1.90;;
22388;SDS011;11362;48.102;11.620;2023-05-10T13:03:01;10.17;;;2.17;;
22388;SDS011;11362;48.102;11.620;2023-05-10T13:05:26;6.53;;;1.70;;
22388;SDS011;11362;48.102;11.620;2023-05-10T13:07:51;3.53;;;1.50;;
22388;SDS011;11362;48.102;11.620;2023-05-10T13:10:17;5.80;;;1.47;;
22388;SDS011;11362;48.102;11.620;2023-05-10T13:12:42;7.80;;;1.87;;
22388;SDS011;11362;48.102;11.620;2023-05-10T13:15:09;7.30;;;2.07;;
22388;SDS011;11362;48.102;11.620;2023-05-10T13:17:34;7.00;;;1.83;;
22388;SDS011;11362;48.102;11.620;2023-05-10T13:20:00;4.77;;;1.70;;
22388;SDS011;11362;48.102;11.620;2023-05-10T13:22:25;6.80;;;1.73;;
22388;SDS011;11362;48.102;11.620;2023-05-10T13:24:50;6.77;;;1.57;;
22388;SDS011;11362;48.102;11.620;2023-05-10T13:27:16;2.77;;;1.43;;
22388;SDS011;11362;48.102;11.620;2023-05-10T13:29:41;5.53;;;1.60;;
22388;SDS011;11362;48.102;11.620;2023-05-10T13:32:06;7.00;;;1.70;;
22388;SDS011;11362;48.102;11.620;2023-05-10T13:34:32;4.27;;;1.60;;
22388;SDS011;11362;48.102;11.620;2023-05-10T13:36:57;5.17;;;1.53;;
22388;SDS011;11362;48.102;11.620;2023-05-10T13:39:23;5.00;;;1.60;;
22388;SDS011;11362;48.102;11.620;2023-05-10T13:41:48;3.57;;;1.30;;
22388;SDS011;11362;48.102;11.620;2023-05-10T13:44:14;5.33;;;1.47;;
22388;SDS011;11362;48.102;11.620;2023-05-10T13:46:40;4.63;;;1.27;;
22388;SDS011;11362;48.102;11.620;2023-05-10T13:49:06;2.53;;;1.17;;
22388;SDS011;11362;48.102;11.620;2023-05-10T13:51:31;2.60;;;1.63;;
22388;SDS011;11362;48.102;11.620;2023-05-10T13:53:58;1.27;;;1.03;;
22388;SDS011;11362;48.102;11.620;2023-05-10T13:56:23;8.77;;;1.97;;
22388;SDS011;11362;48.102;11.620;2023-05-10T13:58:49;3.37;;;1.23;;
22388;SDS011;11362;48.102;11.620;2023-05-10T14:01:14;2.33;;;1.20;;
22388;SDS011;11362;48.102;11.620;2023-05-10T14:03:39;3.80;;;1.20;;
22388;SDS011;11362;48.102;11.620;2023-05-10T14:06:04;4.20;;;1.33;;
22388;SDS011;11362;48.102;11.620;2023-05-10T14:08:30;2.87;;;1.10;;
22388;SDS011;11362;48.102;11.620;2023-05-10T14:10:55;4.73;;;1.47;;
22388;SDS011;11362;48.102;11.620;2023-05-10T14:13:20;5.43;;;1.83;;
22388;SDS011;11362;48.102;11.620;2023-05-10T14:15:46;4.70;;;1.33;;
22388;SDS011;11362;48.102;11.620;2023-05-10T14:18:11;5.37;;;1.10;;
22388;SDS011;11362;48.102;11.620;2023-05-10T14:20:36;7.63;;;1.40;;
22388;SDS011;11362;48.102;11.620;2023-05-10T14:23:02;4.97;;;2.07;;
22388;SDS011;11362;48.102;11.620;2023-05-10T14:25:27;6.63;;;1.77;;
22388;SDS011;11362;48.102;11.620;2023-05-10T14:27:52;9.53;;;2.00;;
22388;SDS011;11362;48.102;11.620;2023-05-10T14:30:18;7.13;;;1.50;;
22388;SDS011;11362;48.102;11.620;2023-05-10T14:32:43;7.47;;;2.23;;
22388;SDS011;11362;48.102;11.620;2023-05-10T14:35:08;6.30;;;1.97;;
22388;SDS011;11362;48.102;11.620;2023-05-10T14:37:33;11.37;;;2.53;;
22388;SDS011;11362;48.102;11.620;2023-05-10T14:39:59;4.60;;;1.83;;
22388;SDS011;11362;48.102;11.620;2023-05-10T14:42:24;10.43;;;2.03;;
22388;SDS011;11362;48.102;11.620;2023-05-10T14:44:50;10.43;;;2.17;;
22388;SDS011;11362;48.102;11.620;2023-05-10T14:47:15;10.13;;;1.93;;
22388;SDS011;11362;48.102;11.620;2023-05-10T14:49:40;11.30;;;2.70;;
22388;SDS011;11362;48.102;11.620;2023-05-10T14:52:05;13.53;;;3.27;;